This is the latest recevied weather packets stored in our database for station/object DH0DM-13. If no packets are shown the sender has not sent any weather packets the latest 10 day(s).
| Time | Temp. | Humidity | Pressure | Rain* | Wind** | Luminosity | Snow |
|---|---|---|---|---|---|---|---|
| 1787664472 | 23.33° C | 45% | 989.5 hPa | 0 mm | 10.28 m/s, 85° | - | - |
| 1787663871 | 22.22° C | 46% | 989.6 hPa | 0 mm | 7.6 m/s, 65° | - | - |
| 1787663270 | 22.22° C | 46% | 989.5 hPa | 0 mm | 9.39 m/s, 119° | - | - |
| 1787662669 | 22.78° C | 45% | 989.5 hPa | 0 mm | 11.62 m/s, 25° | - | - |
| 1787662068 | 23.33° C | 46% | 989.4 hPa | 0 mm | 8.49 m/s, 62° | - | - |
| 1787661468 | 22.22° C | 47% | 989.4 hPa | 0 mm | 14.31 m/s, 75° | - | - |
| 1787660867 | 22.22° C | 47% | 989.8 hPa | 0 mm | 9.39 m/s, 71° | - | - |
| 1787660266 | 22.78° C | 46% | 989.4 hPa | 0 mm | 12.07 m/s, 31° | - | - |
| 1787659665 | 22.78° C | 48% | 989.4 hPa | 0 mm | 8.49 m/s, 91° | - | - |
| 1787659064 | 22.78° C | 47% | 989.6 hPa | 0 mm | 14.31 m/s, 77° | - | - |
| 1787658463 | 22.78° C | 46% | 989.6 hPa | 0 mm | 2.68 m/s, 159° | - | - |
| 1787657862 | 22.78° C | 47% | 989.5 hPa | 0 mm | 8.49 m/s, 82° | - | - |
| 1787657261 | 22.22° C | 49% | 989.6 hPa | 0 mm | 8.05 m/s, 77° | - | - |
| 1787656660 | 22.22° C | 48% | 989.8 hPa | 0 mm | 2.68 m/s, 302° | - | - |
| 1787656059 | 22.22° C | 49% | 989.7 hPa | 0 mm | 4.92 m/s, 304° | - | - |
| 1787655458 | 21.11° C | 51% | 989.9 hPa | 0 mm | 8.49 m/s, 110° | - | - |
| 1787654858 | 21.67° C | 49% | 989.8 hPa | 0 mm | 5.36 m/s, 282° | - | - |
| 1787654257 | 21.67° C | 50% | 990.1 hPa | 0 mm | 14.31 m/s, 104° | - | - |
| 1787653656 | 21.67° C | 50% | 989.9 hPa | 0 mm | 8.49 m/s, 34° | - | - |
| 1787653055 | 20.56° C | 51% | 990.1 hPa | 0 mm | 14.75 m/s, 87° | - | - |
| 1787652454 | 21.11° C | 51% | 990 hPa | 0 mm | 10.28 m/s, 95° | - | - |
| 1787651853 | 20.56° C | 52% | 990.2 hPa | 0 mm | 15.65 m/s, 124° | - | - |
| 1787651252 | 20.56° C | 52% | 990.1 hPa | 0 mm | 14.31 m/s, 69° | - | - |
| 1787650651 | 20.56° C | 53% | 990.3 hPa | 0 mm | 10.28 m/s, 101° | - | - |
| 1787650050 | 20.56° C | 53% | 990.1 hPa | 0 mm | 4.92 m/s, 233° | - | - |
* Rain since midnight (hover to see other rain measurements)
** Current wind speed in m/s (hover to see current wind gust speed)